Data for 06/23/2010

Time Sea-Level Adjusted Pressure Absolute Pressure Temperature Relative Humidity Dew Point   
(mb) (inHg) (mb) (inHg) (C) (F) (%) (C) (F)
00:05 1025 30.27 854 25.22 11.1 51.9 84 8.5 47.2
00:10 1025 30.27 854 25.22 10.8 51.4 81 7.6 45.6
00:15 1025 30.27 854 25.22 10.9 51.6 80 7.6 45.7
00:20 1025 30.27 854 25.22 11 51.8 79 7.5 45.5
00:25 1025 30.27 854 25.22 11.1 51.9 78 7.3 45.2
00:30 1025 30.27 854 25.22 11.2 52.2 77 7.3 45.2
00:35 1025 30.27 854 25.22 11.1 52.1 79 7.6 45.7
00:40 1025 30.27 854 25.22 11 51.7 78 7.3 45.1
00:45 1025 30.27 854 25.22 11 51.8 77 7.3 45.1
00:50 1025 30.27 854 25.22 10.9 51.7 78 7.3 45.2
00:55 1025 30.27 854 25.22 10.9 51.6 76 6.8 44.2
01:00 1025 30.27 854 25.22 11.2 52.2 74 6.8 44.3
01:05 1025 30.27 854 25.22 11.3 52.4 73 6.8 44.2
01:10 1025 30.27 854 25.22 11.4 52.5 73 6.8 44.2
01:15 1025 30.27 854 25.22 11.2 52.1 76 7.1 44.9
01:20 1025 30.27 854 25.22 10.8 51.5 76 6.8 44.3
01:25 1025 30.27 854 25.22 10.7 51.3 77 6.8 44.3
01:30 1025 30.27 854 25.22 10.7 51.3 76 6.7 44.1
01:35 1025 30.27 854 25.22 10.7 51.3 75 6.5 43.7
01:40 1025 30.27 854 25.22 10.7 51.2 75 6.4 43.6
01:45 1025 30.27 854 25.22 10.8 51.5 73 6.3 43.3
01:50 1025 30.27 854 25.22 10.7 51.2 74 6.3 43.4
01:55 1025 30.27 854 25.22 10.7 51.2 74 6.2 43.2
02:00 1025 30.27 854 25.22 10.5 51 74 6.2 43.2
02:05 1025 30.27 854 25.22 10.4 50.7 75 6.2 43.1
02:10 1025 30.27 854 25.22 10.1 50.2 75 5.9 42.7
02:15 1025 30.27 854 25.22 10 49.9 76 5.9 42.6
02:20 1025 30.27 854 25.22 9.9 49.9 74 5.5 41.9
02:25 1025 30.27 854 25.22 10.5 50.9 70 5.3 41.5
02:30 1025 30.27 854 25.22 10.7 51.2 71 5.6 42.1
02:35 1025 30.27 854 25.22 10.5 50.8 73 5.9 42.6
02:40 1025 30.27 854 25.22 10.1 50.2 74 5.7 42.2
02:45 1025 30.27 854 25.22 9.9 49.9 75 5.6 42.1
02:50 1025 30.27 854 25.22 9.8 49.6 75 5.6 42.1
02:55 1025 30.27 854 25.22 9.8 49.6 75 5.6 42
03:00 1025 30.27 854 25.22 9.6 49.4 76 5.7 42.2
03:05 1025 30.27 854 25.22 9.6 49.3 76 5.6 42.1
03:10 1025 30.27 854 25.22 9.5 49.1 77 5.6 42.1
03:15 1025 30.27 854 25.22 9.3 48.8 78 5.7 42.2
03:20 1025 30.27 854 25.22 9.2 48.5 79 5.7 42.3
03:25 1025 30.27 854 25.22 9.3 48.8 77 5.5 41.9
03:30 1025 30.27 854 25.22 9.2 48.6 77 5.3 41.6
03:35 1025 30.27 854 25.22 9.1 48.3 76 5.2 41.3
03:40 1025 30.27 854 25.22 9 48.2 76 5.1 41.2
03:45 1025 30.27 854 25.22 9 48.1 77 5.1 41.1
03:50 1025 30.27 854 25.22 9.1 48.3 75 4.9 40.9
03:55 1025 30.27 854 25.22 9.1 48.3 75 4.9 40.9
04:00 1025 30.27 854 25.22 9.1 48.3 75 4.9 40.8
04:05 1025 30.27 854 25.22 9 48.2 76 5 41
04:10 1025 30.27 854 25.22 9 48.2 76 5 41
04:15 1025 30.27 854 25.22 9 48.2 76 5.1 41.1
04:20 1025 30.27 854 25.22 8.8 47.8 77 4.9 40.9
04:25 1025 30.27 854 25.22 8.8 47.9 75 4.6 40.3
04:30 1025 30.27 854 25.22 9.1 48.4 74 4.7 40.5
04:35 1025 30.27 854 25.22 9 48.2 76 5 41.1
04:40 1025 30.27 854 25.22 8.8 47.9 76 4.8 40.6
04:45 1025 30.27 854 25.22 8.7 47.7 76 4.8 40.7
04:50 1025 30.27 854 25.22 8.5 47.2 77 4.6 40.3
04:55 1025 30.27 854 25.22 8.4 47.1 77 4.6 40.3
05:00 1025 30.27 855 25.25 8.4 47.1 77 4.7 40.4
05:05 1025 30.27 854 25.22 8.3 46.9 78 4.7 40.4
05:10 1025 30.27 854 25.22 8.3 47 77 4.4 40
05:15 1025 30.27 855 25.25 8.4 47.1 76 4.5 40.1
05:20 1025 30.27 855 25.25 8.3 46.9 77 4.6 40.3
05:25 1025 30.27 855 25.25 8.1 46.5 79 4.6 40.3
05:30 1025 30.27 855 25.25 8.1 46.5 76 4.2 39.5
05:35 1025 30.27 855 25.25 8.1 46.6 77 4.4 39.9
05:40 1026 30.3 855 25.25 8.2 46.7 76 4.2 39.6
05:45 1026 30.3 855 25.25 8.4 47.2 77 4.6 40.2
05:50 1026 30.3 855 25.25 8.2 46.7 76 4.3 39.7
05:55 1026 30.3 855 25.25 8.1 46.5 77 4.3 39.7
06:00 1026 30.3 855 25.25 8.1 46.6 77 4.4 39.9
06:05 1026 30.3 855 25.25 8 46.3 77 4.2 39.6
06:10 1026 30.3 855 25.25 8.2 46.8 77 4.4 39.9
06:15 1026 30.3 855 25.25 8.3 46.9 75 4.2 39.5
06:20 1026 30.3 855 25.25 8.4 47.1 75 4.3 39.8
06:25 1026 30.3 855 25.25 8.7 47.6 74 4.3 39.8
06:30 1026 30.3 855 25.25 8.9 48 75 4.6 40.3
06:35 1026 30.3 855 25.25 8.9 48 75 4.7 40.4
06:40 1026 30.3 855 25.25 8.9 48 75 4.7 40.4
06:45 1026 30.3 855 25.25 9.1 48.4 75 4.9 40.7
06:50 1026 30.3 855 25.25 9.3 48.7 74 4.9 40.8
06:55 1026 30.3 855 25.25 9.6 49.3 73 4.9 40.9
07:00 1026 30.3 855 25.25 9.8 49.6 72 5.1 41.2
07:05 1026 30.3 855 25.25 9.8 49.7 73 5.2 41.4
07:10 1026 30.3 855 25.25 9.9 49.8 73 5.3 41.5
07:15 1026 30.3 855 25.25 10.1 50.1 73 5.4 41.7
07:20 1026 30.3 855 25.25 10.2 50.4 72 5.5 41.8
07:25 1026 30.3 855 25.25 10.6 51 71 5.6 42
07:30 1026 30.3 855 25.25 10.8 51.5 70 5.6 42.1
07:35 1026 30.3 855 25.25 11.2 52.1 69 5.8 42.4
07:40 1026 30.3 855 25.25 11.6 52.8 68 6 42.8
07:45 1026 30.3 855 25.25 12.2 54 64 5.8 42.4
07:50 1026 30.3 855 25.25 12.4 54.3 66 6.2 43.2
07:55 1026 30.3 855 25.25 12.6 54.6 63 5.8 42.4
08:00 1026 30.3 855 25.25 12.8 55 63 6 42.9
08:05 1026 30.3 855 25.25 13.1 55.5 64 6.5 43.8
08:10 1026 30.3 855 25.25 13.2 55.7 63 6.4 43.6
08:15 1026 30.3 855 25.25 13.2 55.8 63 6.4 43.4
08:20 1026 30.3 855 25.25 13.8 56.9 60 6.2 43.2
08:25 1026 30.3 855 25.25 14.1 57.3 60 6.4 43.5
08:30 1026 30.3 855 25.25 14.2 57.5 59 6.4 43.6
08:35 1026 30.3 855 25.25 14.8 58.6 56 6.3 43.3
08:40 1026 30.3 855 25.25 15.2 59.3 54 6.1 43
08:45 1026 30.3 855 25.25 15.4 59.7 55 6.5 43.7
08:50 1025 30.27 855 25.25 15.7 60.3 55 6.8 44.2
08:55 1025 30.27 855 25.25 15.8 60.4 57 7.3 45.2
09:00 1025 30.27 855 25.25 15.3 59.6 58 7.3 45.2
09:05 1025 30.27 855 25.25 15 59.1 59 7.2 45
09:10 1025 30.27 855 25.25 16 60.8 56 7.2 45
09:15 1025 30.27 855 25.25 16.6 61.8 56 7.8 46
09:20 1025 30.27 855 25.25 16.3 61.4 54 7.2 45
09:25 1025 30.27 855 25.25 16.1 60.9 56 7.4 45.4
09:30 1025 30.27 854 25.22 16.4 61.4 54 7.1 44.8
09:35 1025 30.27 854 25.22 16.9 62.5 54 7.6 45.6
09:40 1025 30.27 854 25.22 17.3 63.1 56 8.4 47.1
09:45 1025 30.27 854 25.22 16.8 62.2 54 7.4 45.4
09:50 1025 30.27 854 25.22 17.6 63.7 51 7.5 45.5
09:55 1025 30.27 854 25.22 18 64.4 50 7.6 45.7
10:00 1025 30.27 854 25.22 18.3 64.9 53 8.5 47.4
10:05 1025 30.27 854 25.22 17.1 62.8 54 7.9 46.2
10:10 1025 30.27 854 25.22 17 62.6 53 7.3 45.2
10:15 1025 30.27 854 25.22 18.3 64.9 49 7.6 45.8
10:20 1025 30.27 854 25.22 18.6 65.4 50 8.1 46.6
10:25 1025 30.27 854 25.22 18.9 66 48 7.7 45.8
10:30 1025 30.27 854 25.22 19.1 66.4 49 8.2 46.7
10:35 1025 30.27 854 25.22 18 64.4 51 7.9 46.2
10:40 1025 30.27 854 25.22 18.2 64.7 51 8 46.3
10:45 1025 30.27 854 25.22 18.3 65 50 7.9 46.3
10:50 1025 30.27 854 25.22 18.8 65.9 48 7.7 45.9
10:55 1025 30.27 854 25.22 19.6 67.2 48 8.3 46.9
11:00 1025 30.27 854 25.22 18.8 65.9 48 7.6 45.7
11:05 1025 30.27 854 25.22 19.5 67.2 47 8.2 46.8
11:10 1025 30.27 854 25.22 19.7 67.5 46 7.8 46.1
11:15 1025 30.27 854 25.22 19.2 66.5 44 6.8 44.3
11:20 1025 30.27 854 25.22 19.2 66.6 46 7.5 45.4
11:25 1025 30.27 854 25.22 19.3 66.7 45 7.3 45.2
11:30 1025 30.27 854 25.22 20.4 68.8 41 7 44.6
11:35 1025 30.27 854 25.22 21 69.7 42 7.8 46.1
11:40 1024 30.24 854 25.22 21.1 70 39 6.7 44.1
11:45 1024 30.24 854 25.22 20.5 69 41 6.9 44.4
11:50 1024 30.24 854 25.22 20.4 68.8 38 5.9 42.7
11:55 1024 30.24 854 25.22 20.1 68.3 41 6.7 44.1
12:00 1024 30.24 853 25.19 21 69.8 41 7.4 45.3
12:05 1024 30.24 853 25.19 20.6 69 43 7.6 45.7
12:10 1024 30.24 853 25.19 20.8 69.4 39 6.7 44
12:15 1024 30.24 853 25.19 21.2 70.2 38 6.7 44
12:20 1024 30.24 853 25.19 21.1 70 37 6.2 43.2
12:25 1024 30.24 853 25.19 22.3 72.1 35 6.1 43
12:30 1024 30.24 853 25.19 21.9 71.4 32 4.5 40.1
12:35 1024 30.24 853 25.19 21.5 70.6 33 4.6 40.3
12:40 1024 30.24 853 25.19 21.4 70.4 33 4.7 40.5
12:45 1024 30.24 853 25.19 22.3 72.2 33 5.3 41.5
12:50 1024 30.24 853 25.19 22.9 73.3 31 5.2 41.4
12:55 1024 30.24 853 25.19 23 73.4 30 4.5 40.2
13:00 1024 30.24 853 25.19 23.2 73.8 31 5.3 41.5
13:05 1024 30.24 853 25.19 22.9 73.3 32 5.4 41.6
13:10 1024 30.24 853 25.19 23 73.4 31 5.2 41.4
13:15 1024 30.24 853 25.19 23.3 73.9 30 4.8 40.6
13:20 1024 30.24 853 25.19 23.9 75 30 5.5 41.8
13:25 1024 30.24 853 25.19 24.2 75.5 28 4.5 40.1
13:30 1024 30.24 853 25.19 24.4 75.8 27 4.5 40
13:35 1024 30.24 853 25.19 24.7 76.4 27 4.7 40.5
13:40 1024 30.24 853 25.19 23.7 74.7 29 4.8 40.7
13:45 1023 30.21 853 25.19 23.8 74.9 30 5.3 41.6
13:50 1023 30.21 853 25.19 24.1 75.3 29 5 41
13:55 1023 30.21 853 25.19 24.5 76.1 26 3.8 38.9
14:00 1023 30.21 852 25.16 24.9 76.9 27 5 41
14:05 1023 30.21 852 25.16 24.3 75.8 28 4.7 40.5
14:10 1023 30.21 852 25.16 24.6 76.3 27 4.8 40.6
14:15 1023 30.21 852 25.16 23.6 74.5 29 4.7 40.5
14:20 1023 30.21 852 25.16 24.1 75.3 27 4.4 39.8
14:25 1023 30.21 852 25.16 23.4 74.2 30 4.9 40.8
14:30 1023 30.21 852 25.16 23 73.5 29 4.2 39.6
14:35 1023 30.21 852 25.16 23.4 74 28 4.1 39.4
14:40 1023 30.21 852 25.16 24.4 75.9 27 4.2 39.5
14:45 1023 30.21 852 25.16 24.1 75.4 29 5 41
14:50 1023 30.21 852 25.16 23.8 74.9 28 4.5 40.1
14:55 1023 30.21 852 25.16 23 73.4 27 3.4 38.1
15:00 1023 30.21 852 25.16 23.8 74.8 27 3.7 38.7
15:05 1023 30.21 852 25.16 24.2 75.5 27 4.2 39.6
15:10 1023 30.21 852 25.16 23.1 73.5 28 3.8 38.9
15:15 1023 30.21 852 25.16 22.6 72.6 28 3.1 37.6
15:20 1023 30.21 852 25.16 23.6 74.4 25 2.7 36.8
15:25 1023 30.21 852 25.16 24.3 75.7 26 4 39.2
15:30 1023 30.21 852 25.16 23.6 74.5 27 3.7 38.6
15:35 1023 30.21 852 25.16 23.1 73.6 26 2.6 36.7
15:40 1023 30.21 852 25.16 24.1 75.4 25 3.2 37.8
15:45 1023 30.21 852 25.16 23.8 74.9 26 3.3 37.9
15:50 1023 30.21 852 25.16 23.8 74.9 27 4.1 39.3
15:55 1023 30.21 852 25.16 23.2 73.8 27 3.5 38.3
16:00 1023 30.21 852 25.16 23.3 74 27 3.4 38.2
16:05 1023 30.21 852 25.16 23.7 74.7 26 3 37.4
16:10 1023 30.21 852 25.16 24 75.3 26 3.4 38.2
16:15 1023 30.21 852 25.16 23.9 75 26 3.7 38.6
16:20 1023 30.21 852 25.16 23.5 74.3 28 4.1 39.4
16:25 1023 30.21 852 25.16 23.2 73.8 27 3.4 38.1
16:30 1023 30.21 852 25.16 23.4 74.1 26 2.9 37.3
16:35 1023 30.21 852 25.16 24.5 76.1 26 3.9 39.1
16:40 1023 30.21 852 25.16 24 75.1 26 3.7 38.7
16:45 1023 30.21 852 25.16 23.4 74.1 27 3.6 38.5
16:50 1023 30.21 852 25.16 23.1 73.6 27 3.1 37.5
16:55 1022 30.18 852 25.16 23.8 74.8 28 4.2 39.6
17:00 1022 30.18 852 25.16 23.2 73.8 27 3.2 37.7
17:05 1022 30.18 851 25.13 23.9 75 26 3.6 38.4
17:10 1022 30.18 851 25.13 24.2 75.5 28 4.6 40.2
17:15 1022 30.18 851 25.13 23.6 74.5 27 3.9 39.1
17:20 1022 30.18 851 25.13 24.2 75.5 26 3.9 38.9
17:25 1022 30.18 851 25.13 24.9 76.7 25 3.8 38.9
17:30 1022 30.18 851 25.13 23.7 74.6 25 3 37.3
17:35 1022 30.18 851 25.13 23.7 74.6 26 3.4 38
17:40 1022 30.18 851 25.13 23.8 74.8 27 4 39.2
17:45 1022 30.18 851 25.13 23.8 74.9 27 4 39.1
17:50 1022 30.18 851 25.13 23.8 74.8 28 4.4 39.9
17:55 1022 30.18 851 25.13 23.3 74 28 3.8 38.9
18:00 1022 30.18 851 25.13 23.6 74.4 26 3.2 37.8
18:05 1022 30.18 851 25.13 24 75.2 27 3.8 38.9
18:10 1022 30.18 851 25.13 24.7 76.4 25 3.9 38.9
18:15 1022 30.18 851 25.13 24.6 76.3 26 4.2 39.5
18:20 1022 30.18 851 25.13 24.3 75.8 27 4.1 39.4
18:25 1022 30.18 851 25.13 24.7 76.4 26 4.1 39.4
18:30 1022 30.18 851 25.13 24.7 76.5 27 4.6 40.2
18:35 1022 30.18 851 25.13 24.6 76.3 27 4.6 40.2
18:40 1022 30.18 851 25.13 25.1 77.1 26 4.7 40.5
18:45 1021 30.15 851 25.13 25 76.9 26 4.4 39.9
18:50 1021 30.15 851 25.13 24.5 76.2 27 4.5 40
18:55 1021 30.15 851 25.13 24.3 75.8 28 4.7 40.5
19:00 1021 30.15 851 25.13 24.4 75.9 27 4.5 40.2
19:05 1021 30.15 851 25.13 24.4 75.9 28 5.1 41.1
19:10 1021 30.15 851 25.13 24.3 75.7 27 4.2 39.6
19:15 1021 30.15 851 25.13 24.5 76.1 27 4.7 40.4
19:20 1021 30.15 851 25.13 24.3 75.7 29 5.3 41.5
19:25 1021 30.15 850 25.1 23.9 75 31 5.8 42.5
19:30 1021 30.15 850 25.1 23.4 74.1 35 7.2 44.9
19:35 1021 30.15 851 25.13 22.7 72.9 37 7.3 45.2
19:40 1021 30.15 851 25.13 22.5 72.5 37 7.3 45.2
19:45 1021 30.15 851 25.13 22.3 72.1 38 7.6 45.6
19:50 1021 30.15 851 25.13 22.2 72 38 7.5 45.5
19:55 1021 30.15 851 25.13 22.1 71.8 40 8 46.4
20:00 1021 30.15 851 25.13 22 71.6 40 8 46.5
20:05 1021 30.15 851 25.13 21.8 71.3 41 8.1 46.6
20:10 1021 30.15 851 25.13 21.7 71.1 41 8.2 46.7
20:15 1021 30.15 851 25.13 21.6 70.9 42 8.1 46.7
20:20 1021 30.15 851 25.13 21.4 70.6 43 8.5 47.2
20:25 1021 30.15 851 25.13 21.3 70.4 43 8.3 46.9
20:30 1021 30.15 851 25.13 21.2 70.2 44 8.6 47.4
20:35 1021 30.15 850 25.1 21 69.8 44 8.4 47.1
20:40 1021 30.15 850 25.1 20.9 69.6 44 8.3 46.9
20:45 1021 30.15 850 25.1 20.7 69.3 44 8.3 47
20:50 1021 30.15 850 25.1 20.5 68.9 45 8.4 47.1
20:55 1021 30.15 850 25.1 20.3 68.5 45 8.2 46.7
21:00 1021 30.15 850 25.1 20.1 68.1 46 8.1 46.6
21:05 1021 30.15 850 25.1 20 68 45 7.9 46.3
21:10 1021 30.15 850 25.1 19.9 67.7 46 8.1 46.7
21:15 1021 30.15 851 25.13 19.7 67.4 47 8.3 46.9
21:20 1021 30.15 851 25.13 19.4 67 48 8.3 46.9
21:25 1021 30.15 851 25.13 19.3 66.7 48 8.3 46.9
21:30 1021 30.15 851 25.13 19.2 66.6 48 8.2 46.8
21:35 1021 30.15 851 25.13 19.1 66.3 49 8.2 46.8
21:40 1021 30.15 851 25.13 19 66.2 49 8.2 46.8
21:45 1021 30.15 851 25.13 18.9 66.1 49 8.2 46.7
21:50 1021 30.15 851 25.13 18.8 65.9 50 8.3 46.9
21:55 1021 30.15 851 25.13 18.8 65.9 48 7.8 46.1
22:00 1022 30.18 851 25.13 19.1 66.3 48 7.9 46.1
22:05 1022 30.18 851 25.13 19 66.3 48 7.9 46.2
22:10 1022 30.18 851 25.13 19.1 66.4 48 7.9 46.2
22:15 1022 30.18 851 25.13 19.1 66.3 48 7.9 46.2
22:20 1022 30.18 851 25.13 18.8 65.8 50 8.2 46.7
22:25 1022 30.18 851 25.13 18.5 65.2 49 7.7 45.9
22:30 1022 30.18 851 25.13 18.5 65.3 50 7.9 46.2
22:35 1022 30.18 851 25.13 18.2 64.8 52 8.2 46.8
22:40 1022 30.18 851 25.13 17.9 64.2 53 8.3 47
22:45 1022 30.18 851 25.13 17.6 63.7 54 8.2 46.7
22:50 1022 30.18 851 25.13 17.7 63.9 51 7.7 45.8
22:55 1022 30.18 851 25.13 17.9 64.1 53 8.3 47
23:00 1022 30.18 851 25.13 17.6 63.6 54 8.3 46.9
23:05 1022 30.18 851 25.13 17.1 62.8 57 8.6 47.5
23:10 1022 30.18 851 25.13 16.6 61.8 63 9.5 49.1
23:15 1022 30.18 851 25.13 16.3 61.3 60 8.5 47.3
23:20 1022 30.18 851 25.13 16.1 60.9 62 8.8 47.9
23:25 1022 30.18 851 25.13 15.6 60.1 63 8.6 47.5
23:30 1022 30.18 851 25.13 15.5 59.9 64 8.8 47.8
23:35 1022 30.18 851 25.13 15.4 59.7 63 8.5 47.3
23:40 1022 30.18 851 25.13 15.3 59.6 63 8.3 47
23:45 1022 30.18 851 25.13 15.3 59.5 63 8.3 47
23:50 1022 30.18 851 25.13 15.3 59.5 62 8.1 46.6
23:55 1022 30.18 851 25.13 15.5 59.9 62 8.3 47
24:00 1022 30.18 851 25.13 15.4 59.7 63 8.4 47.1